Time;durP1;ratioP1;P1;durP2;ratioP2;P2;SDS_P1;SDS_P2;PMS_P1;PMS_P2;Temp;Humidity;BMP_temperature;BMP_pressure;BME280_temperature;BME280_humidity;BME280_pressure;Samples;Min_cycle;Max_cycle;Signal;HPM_P1;HPM_P2
2021/01/02 00:02:15;;;;;;;37.77;14.37;;;2.20;94.40;;;1.72;90.02;97610.09;5048931;28;21126;-77
2021/01/02 00:05:05;;;;;;;50.47;15.97;;;2.20;94.70;;;1.76;90.25;97609.91;5047026;28;20640;-77
2021/01/02 00:08:14;;;;;;;37.27;13.37;;;2.30;94.80;;;1.77;89.55;97605.59;5048457;28;20636;-77
2021/01/02 00:10:52;;;;;;;40.77;12.87;;;2.30;94.60;;;1.79;89.37;97604.63;5047960;28;20620;-77
2021/01/02 00:13:37;;;;;;;49.17;12.43;;;2.30;94.50;;;1.82;88.59;97604.50;5053316;28;20631;-77
2021/01/02 00:16:39;;;;;;;21.53;10.97;;;2.30;94.00;;;1.82;89.06;97601.09;5049467;28;20649;-77
2021/01/02 00:19:24;;;;;;;40.70;11.43;;;2.30;94.30;;;1.78;89.63;97608.09;5045639;28;20631;-77
2021/01/02 00:22:01;;;;;;;30.43;10.90;;;2.30;94.60;;;1.79;89.58;97611.50;5047787;28;21104;-77
2021/01/02 00:24:38;;;;;;;29.27;9.27;;;2.30;94.70;;;1.74;89.69;97608.28;5047270;28;20627;-77
2021/01/02 00:27:13;;;;;;;45.43;10.37;;;2.30;94.30;;;1.72;89.77;97610.09;5043721;28;20668;-77
2021/01/02 00:30:17;;;;;;;42.40;10.53;;;2.30;94.70;;;1.72;89.33;97604.97;5048661;28;21221;-77
2021/01/02 00:32:58;;;;;;;46.03;10.53;;;2.20;94.60;;;1.66;89.73;97610.34;5048527;28;20628;-77
2021/01/02 00:35:28;;;;;;;37.83;9.53;;;2.20;94.30;;;1.63;89.71;97603.59;5048997;28;20670;-77
2021/01/02 00:38:02;;;;;;;42.70;10.80;;;2.20;94.50;;;1.57;89.41;97606.41;5047375;28;20686;-77
2021/01/02 00:40:42;;;;;;;41.60;9.53;;;2.20;94.20;;;1.54;89.85;97603.97;5104417;27;20821;-79
2021/01/02 00:43:10;;;;;;;32.83;9.80;;;2.10;94.40;;;1.58;90.08;97608.09;5086299;28;20634;-79
2021/01/02 00:45:37;;;;;;;46.33;10.33;;;2.10;94.40;;;1.58;89.49;97609.81;5084521;28;20680;-78
2021/01/02 00:48:07;;;;;;;17.50;9.13;;;2.10;94.20;;;1.55;89.63;97607.38;5086086;28;20729;-79
2021/01/02 00:50:35;;;;;;;30.97;9.57;;;2.10;94.70;;;1.54;89.82;97608.28;5115509;28;20984;-79
2021/01/02 00:53:42;;;;;;;23.77;8.93;;;2.10;94.40;;;1.49;89.08;97613.59;5078140;28;20630;-79
2021/01/02 00:56:28;;;;;;;17.57;7.90;;;2.00;94.40;;;1.44;89.26;97610.41;5067821;28;20717;-79
2021/01/02 00:59:48;;;;;;;20.30;7.93;;;2.00;94.40;;;1.40;88.83;97611.41;5084699;28;20655;-79
2021/01/02 01:02:56;;;;;;;14.57;8.73;;;2.00;94.30;;;1.41;88.88;97610.53;5061180;28;20697;-79
2021/01/02 01:05:24;;;;;;;18.57;8.93;;;2.00;94.00;;;1.42;87.98;97609.59;5086852;28;20623;-79
2021/01/02 01:07:54;;;;;;;13.63;8.63;;;2.00;93.50;;;1.43;88.10;97616.41;5100060;28;20631;-79
2021/01/02 01:10:24;;;;;;;19.43;8.47;;;2.00;93.30;;;1.42;87.43;97609.59;5087262;28;20614;-79
2021/01/02 01:13:00;;;;;;;16.43;9.13;;;2.00;93.40;;;1.41;87.78;97613.09;5085420;28;22469;-79
2021/01/02 01:15:28;;;;;;;27.10;9.57;;;2.00;93.40;;;1.39;87.79;97615.78;5065963;28;20631;-79
2021/01/02 01:18:32;;;;;;;32.43;10.30;;;1.90;93.10;;;1.36;87.68;97621.03;5084398;28;21039;-79
2021/01/02 01:21:01;;;;;;;29.23;9.97;;;1.90;93.50;;;1.34;88.04;97617.66;5080751;28;20692;-79
2021/01/02 01:23:49;;;;;;;33.63;10.07;;;1.90;93.70;;;1.38;88.34;97616.66;5084642;28;20663;-79
2021/01/02 01:26:48;;;;;;;17.83;9.57;;;1.90;93.60;;;1.33;87.90;97616.84;5074561;28;20627;-79
2021/01/02 01:29:24;;;;;;;21.43;7.40;;;1.90;93.50;;;1.31;88.20;97625.50;5073309;28;20622;-79
2021/01/02 01:31:57;;;;;;;23.10;8.40;;;1.90;93.40;;;1.31;88.31;97635.75;5083413;28;20986;-79
2021/01/02 01:34:27;;;;;;;19.97;9.13;;;1.80;93.60;;;1.28;87.99;97635.88;5084854;28;20627;-79
2021/01/02 01:36:55;;;;;;;20.97;9.80;;;1.80;93.60;;;1.27;87.51;97641.94;5072229;28;20632;-79
2021/01/02 01:39:25;;;;;;;22.67;9.80;;;1.80;93.30;;;1.29;88.22;97642.69;5079745;28;20712;-79
2021/01/02 01:42:01;;;;;;;23.70;9.80;;;1.80;93.40;;;1.29;88.08;97642.69;5085117;28;21033;-79
2021/01/02 01:44:56;;;;;;;18.00;9.33;;;1.80;93.40;;;1.28;87.20;97638.44;5075196;28;21252;-79
2021/01/02 01:47:35;;;;;;;15.40;9.00;;;1.80;93.00;;;1.24;87.46;97642.06;5062939;28;21079;-79
2021/01/02 01:50:24;;;;;;;12.00;8.57;;;1.80;93.00;;;1.21;87.39;97640.44;5059943;28;20843;-79
2021/01/02 01:53:40;;;;;;;12.87;9.10;;;1.80;92.70;;;1.17;86.47;97644.00;5071622;28;20634;-79
2021/01/02 01:56:17;;;;;;;13.13;9.50;;;1.80;92.60;;;1.11;85.66;97638.28;5054434;28;20700;-79
2021/01/02 01:59:21;;;;;;;13.37;9.50;;;1.70;92.30;;;1.07;86.45;97634.19;5068862;28;20666;-79
2021/01/02 02:01:52;;;;;;;14.13;8.57;;;1.70;92.50;;;1.05;87.32;97636.81;5046120;28;20628;-79
2021/01/02 02:05:03;;;;;;;21.60;10.50;;;1.70;92.50;;;1.05;86.69;97639.38;5064791;28;20632;-79
2021/01/02 02:07:46;;;;;;;21.00;12.20;;;1.70;92.80;;;1.09;86.72;97640.09;5048557;28;20766;-79
2021/01/02 02:10:17;;;;;;;21.30;12.73;;;1.70;92.80;;;1.09;86.91;97637.50;5063155;28;20221;-79
2021/01/02 02:12:52;;;;;;;20.63;10.87;;;1.70;92.70;;;1.14;86.27;97638.16;5061099;28;20697;-79
2021/01/02 02:15:23;;;;;;;20.20;10.20;;;1.70;92.60;;;1.15;86.39;97642.41;5060248;28;21175;-79
2021/01/02 02:18:03;;;;;;;17.33;10.90;;;1.70;92.50;;;1.13;86.12;97634.78;5067336;28;20635;-79
2021/01/02 02:20:32;;;;;;;14.83;10.03;;;1.70;92.40;;;1.13;86.75;97634.78;5056551;28;20667;-79
2021/01/02 02:23:05;;;;;;;18.60;9.70;;;1.70;92.50;;;1.13;86.76;97641.66;5064259;28;20627;-79
2021/01/02 02:25:59;;;;;;;23.83;10.37;;;1.70;92.60;;;1.15;86.52;97637.28;5060581;28;21159;-79
2021/01/02 02:29:08;;;;;;;18.37;10.40;;;1.70;92.70;;;1.13;86.95;97633.94;5069626;28;20647;-79
2021/01/02 02:31:43;;;;;;;23.70;9.60;;;1.70;92.80;;;1.15;86.75;97644.97;5071587;28;20620;-79
2021/01/02 02:34:14;;;;;;;14.00;10.17;;;1.70;92.80;;;1.15;86.78;97643.25;5074067;28;20641;-79
2021/01/02 02:36:42;;;;;;;20.70;9.70;;;1.70;92.70;;;1.14;87.22;97643.28;5066291;28;20667;-79
2021/01/02 02:39:12;;;;;;;21.70;9.17;;;1.70;92.80;;;1.14;87.79;97635.59;5047038;28;20667;-79
2021/01/02 02:41:44;;;;;;;27.13;8.13;;;1.70;92.80;;;1.14;88.38;97633.88;5060535;28;21145;-79
2021/01/02 02:44:16;;;;;;;21.80;8.90;;;1.70;93.40;;;1.16;88.45;97639.78;5059360;28;20623;-79
2021/01/02 02:46:47;;;;;;;22.63;8.70;;;1.70;93.70;;;1.20;88.98;97636.19;5070519;28;21024;-79
2021/01/02 02:49:23;;;;;;;18.00;9.20;;;1.70;93.60;;;1.21;88.45;97635.31;5065249;28;20632;-79
2021/01/02 02:51:59;;;;;;;28.40;10.03;;;1.80;93.60;;;1.14;88.42;97640.72;5058024;28;21175;-79
2021/01/02 02:54:26;;;;;;;31.20;9.20;;;1.70;93.60;;;1.14;88.79;97630.47;5057134;28;20636;-79
2021/01/02 02:56:54;;;;;;;30.17;9.13;;;1.70;93.50;;;1.20;88.55;97635.34;5058079;28;20631;-79
2021/01/02 02:59:26;;;;;;;30.37;10.07;;;1.80;93.60;;;1.26;88.14;97642.81;5039507;28;21299;-79
2021/01/02 03:01:54;;;;;;;19.50;8.90;;;1.80;93.60;;;1.27;88.20;97640.19;5062432;28;20639;-79
2021/01/02 03:04:22;;;;;;;22.90;9.60;;;1.80;93.70;;;1.27;88.41;97644.50;5059738;28;20654;-79
2021/01/02 03:06:50;;;;;;;21.97;8.97;;;1.80;93.40;;;1.27;87.81;97641.94;5059162;28;20628;-79
2021/01/02 03:09:18;;;;;;;14.80;9.30;;;1.80;93.50;;;1.27;88.04;97652.22;5062076;28;20737;-79
2021/01/02 03:11:46;;;;;;;30.93;10.27;;;1.80;93.50;;;1.28;88.34;97648.72;5064977;28;20624;-79
2021/01/02 03:14:14;;;;;;;29.00;8.50;;;1.80;93.60;;;1.28;89.23;97651.28;5057934;28;21073;-79
2021/01/02 03:16:42;;;;;;;24.07;9.40;;;1.90;93.70;;;1.28;88.81;97653.84;5071665;28;20701;-79
2021/01/02 03:19:10;;;;;;;21.97;9.10;;;1.80;93.80;;;1.30;88.76;97655.47;5068057;28;22485;-79
2021/01/02 03:21:38;;;;;;;20.33;9.73;;;1.80;93.70;;;1.33;88.22;97655.38;5064213;28;20633;-79
2021/01/02 03:24:08;;;;;;;27.77;9.00;;;1.90;93.60;;;1.35;88.68;97655.31;5062303;28;20716;-79
2021/01/02 03:26:35;;;;;;;18.10;9.00;;;1.90;93.80;;;1.35;87.94;97656.13;5059132;28;20662;-79
2021/01/02 03:29:03;;;;;;;21.40;9.57;;;1.90;93.70;;;1.36;88.13;97656.97;5066452;28;20684;-79
2021/01/02 03:31:31;;;;;;;20.73;9.97;;;1.90;93.50;;;1.33;87.97;97654.53;5046936;28;21247;-79
2021/01/02 03:33:58;;;;;;;19.67;9.40;;;1.90;93.40;;;1.38;87.44;97653.44;5064858;28;20682;-79
2021/01/02 03:36:26;;;;;;;34.93;9.40;;;1.90;93.50;;;1.34;87.35;97658.75;5061544;28;21194;-79
2021/01/02 03:38:58;;;;;;;18.77;9.50;;;1.80;92.70;;;1.29;87.13;97655.53;5079950;28;20693;-79
2021/01/02 03:41:28;;;;;;;15.73;8.80;;;1.80;93.10;;;1.26;86.89;97659.06;5067907;28;20640;-79
2021/01/02 03:43:56;;;;;;;12.83;8.50;;;1.80;93.10;;;1.25;87.23;97653.97;5067983;28;20702;-79
2021/01/02 03:46:27;;;;;;;15.27;9.47;;;1.80;92.90;;;1.23;86.73;97650.66;5061462;28;20631;-79
2021/01/02 03:48:56;;;;;;;16.80;9.20;;;1.80;92.90;;;1.23;86.95;97645.50;5054388;28;20980;-79
2021/01/02 03:51:25;;;;;;;14.30;9.50;;;1.80;92.60;;;1.30;86.54;97647.78;5064357;28;20685;-79
2021/01/02 03:53:54;;;;;;;16.80;10.33;;;1.80;92.50;;;1.30;85.97;97641.81;5064885;28;21218;-79
2021/01/02 03:56:21;;;;;;;17.40;12.23;;;1.80;92.10;;;1.19;85.55;97642.25;5062824;28;20636;-78
2021/01/02 03:58:50;;;;;;;15.47;9.50;;;1.80;92.00;;;1.14;86.20;97639.03;5063141;28;20631;-78
2021/01/02 04:01:18;;;;;;;16.70;10.00;;;1.70;92.00;;;1.11;85.41;97628.00;5051276;28;20627;-78
2021/01/02 04:03:45;;;;;;;15.93;10.80;;;1.70;92.30;;;1.11;85.99;97630.59;5066837;28;20627;-78
2021/01/02 04:06:13;;;;;;;14.20;9.67;;;1.70;91.90;;;1.11;85.78;97630.59;5067111;28;21250;-78
2021/01/02 04:08:41;;;;;;;14.77;9.77;;;1.70;92.10;;;1.10;85.94;97623.81;5058556;28;21041;-79
2021/01/02 04:11:09;;;;;;;16.27;9.90;;;1.70;91.90;;;1.08;85.52;97623.00;5060816;28;20639;-79
2021/01/02 04:13:37;;;;;;;14.20;9.07;;;1.70;92.20;;;1.04;86.01;97618.91;5067284;28;21190;-79
2021/01/02 04:16:05;;;;;;;14.80;9.70;;;1.60;91.80;;;1.03;85.71;97619.78;5064371;28;20632;-78
2021/01/02 04:18:33;;;;;;;16.60;11.03;;;1.60;91.70;;;1.03;86.28;97630.88;5065596;28;21221;-79
2021/01/02 04:21:00;;;;;;;16.27;10.30;;;1.60;91.90;;;1.05;86.10;97620.56;5064949;28;21253;-79
2021/01/02 04:23:29;;;;;;;12.43;8.50;;;1.60;91.80;;;1.07;85.95;97623.91;5057149;28;20667;-79
2021/01/02 04:25:56;;;;;;;13.50;9.90;;;1.60;91.90;;;1.13;85.62;97623.69;5040422;28;20992;-79
2021/01/02 04:28:26;;;;;;;13.27;8.90;;;1.70;92.00;;;1.17;86.01;97625.22;5056148;28;20733;-79
2021/01/02 04:30:54;;;;;;;11.00;7.90;;;1.70;92.10;;;1.28;86.52;97638.44;5061673;28;21198;-79
2021/01/02 04:33:22;;;;;;;12.50;8.63;;;1.80;92.50;;;1.38;87.07;97634.63;5061353;28;20682;-79
2021/01/02 04:35:49;;;;;;;13.77;8.23;;;1.90;92.60;;;1.45;86.88;97627.44;5042002;28;21208;-79
2021/01/02 04:38:17;;;;;;;14.07;8.50;;;2.00;92.90;;;1.55;86.63;97627.94;5060910;28;20225;-79
2021/01/02 04:40:45;;;;;;;12.20;8.50;;;2.00;92.80;;;1.60;86.74;97628.59;5057242;28;20663;-79
2021/01/02 04:43:13;;;;;;;12.47;8.63;;;2.10;92.70;;;1.57;86.35;97629.53;5059131;28;21110;-79
2021/01/02 04:45:42;;;;;;;15.30;9.27;;;2.10;92.60;;;1.59;85.66;97626.91;5051273;28;21401;-79
2021/01/02 04:48:10;;;;;;;13.10;8.93;;;2.20;92.20;;;1.56;85.53;97624.44;5042771;28;20631;-79
2021/01/02 04:50:38;;;;;;;14.00;9.30;;;2.10;92.20;;;1.56;85.60;97630.41;5061681;28;20632;-79
2021/01/02 04:53:06;;;;;;;17.30;11.00;;;2.10;91.80;;;1.59;86.10;97635.44;5064258;28;20636;-79
2021/01/02 04:55:37;;;;;;;16.87;11.23;;;2.10;91.90;;;1.61;85.34;97635.38;5040828;28;20621;-79
2021/01/02 04:58:07;;;;;;;17.60;11.37;;;2.20;91.80;;;1.60;85.20;97637.13;5057138;28;20647;-79
2021/01/02 05:00:38;;;;;;;16.27;10.60;;;2.10;91.80;;;1.56;85.07;97638.13;5061870;28;20664;-79
2021/01/02 05:03:07;;;;;;;15.50;10.90;;;2.10;92.00;;;1.58;85.84;97638.06;5047960;28;20642;-79
2021/01/02 05:05:35;;;;;;;14.80;10.30;;;2.10;91.90;;;1.58;85.58;97641.50;5068638;28;20636;-79
2021/01/02 05:08:04;;;;;;;14.07;9.90;;;2.10;91.70;;;1.60;85.99;97642.25;5058820;28;20635;-79
2021/01/02 05:10:32;;;;;;;18.20;11.60;;;2.20;92.10;;;1.60;85.88;97644.00;5052421;28;20686;-79
2021/01/02 05:13:12;;;;;;;14.97;10.50;;;2.20;91.90;;;1.70;84.97;97647.84;5058790;28;21179;-79
2021/01/02 05:15:41;;;;;;;16.10;10.57;;;2.20;91.90;;;1.65;84.96;97640.31;5056836;28;20627;-79
2021/01/02 05:18:13;;;;;;;16.67;11.17;;;2.20;91.70;;;1.69;84.93;97649.59;5043817;28;21034;-79
2021/01/02 05:20:41;;;;;;;16.80;11.27;;;2.20;91.40;;;1.70;84.41;97645.28;5064842;28;20651;-79
2021/01/02 05:23:09;;;;;;;14.70;10.67;;;2.20;91.50;;;1.70;85.06;97652.97;5068967;28;20631;-79
2021/01/02 05:25:38;;;;;;;15.13;10.47;;;2.20;91.70;;;1.70;85.00;97651.25;5060878;28;20632;-79
2021/01/02 05:28:16;;;;;;;18.70;12.63;;;2.20;91.60;;;1.73;84.66;97651.13;5059018;28;20660;-79
2021/01/02 05:30:43;;;;;;;17.37;11.20;;;2.20;91.50;;;1.68;84.44;97644.50;5070562;28;20619;-79
2021/01/02 05:33:13;;;;;;;18.97;12.93;;;2.20;91.20;;;1.70;84.82;97643.56;5054893;28;21020;-79
2021/01/02 05:35:45;;;;;;;16.83;11.30;;;2.20;91.40;;;1.69;84.88;97641.06;5058908;28;20636;-79
2021/01/02 05:38:21;;;;;;;15.97;10.23;;;2.20;91.60;;;1.70;85.24;97648.69;5046927;28;20667;-79
2021/01/02 05:40:52;;;;;;;19.47;12.03;;;2.20;91.40;;;1.67;85.10;97650.53;5074042;28;20687;-79
2021/01/02 05:43:22;;;;;;;20.10;11.50;;;2.20;91.60;;;1.65;85.32;97648.03;5064410;28;20677;-79
2021/01/02 05:45:51;;;;;;;16.83;11.53;;;2.20;91.70;;;1.66;85.07;97646.31;5086928;28;20659;-79
2021/01/02 05:48:24;;;;;;;18.20;11.07;;;2.20;91.90;;;1.68;85.19;97645.34;5064558;28;20636;-79
2021/01/02 05:50:55;;;;;;;17.23;12.07;;;2.20;91.70;;;1.71;85.42;97652.91;5069772;28;20628;-79
2021/01/02 05:53:28;;;;;;;20.37;11.50;;;2.30;91.70;;;1.68;85.77;97649.66;5064117;28;21212;-79
2021/01/02 05:56:05;;;;;;;16.10;10.60;;;2.30;92.00;;;1.74;85.67;97650.22;5057384;28;20693;-79
2021/01/02 05:58:36;;;;;;;16.90;11.37;;;2.30;92.20;;;1.74;85.93;97642.50;5064444;28;20636;-79
2021/01/02 06:01:10;;;;;;;17.70;10.93;;;2.30;92.10;;;1.79;85.71;97648.31;5065882;28;20651;-79
2021/01/02 06:03:41;;;;;;;20.73;11.73;;;2.30;92.10;;;1.79;86.41;97658.59;5061812;28;20647;-79
2021/01/02 06:06:11;;;;;;;19.57;11.83;;;2.40;92.50;;;1.82;86.16;97663.63;5062631;28;21250;-79
2021/01/02 06:08:42;;;;;;;16.37;11.27;;;2.40;92.40;;;1.82;85.71;97660.19;5056285;28;20664;-79
2021/01/02 06:11:13;;;;;;;14.33;9.27;;;2.40;92.20;;;1.84;86.02;97664.38;5066905;28;20678;-79
2021/01/02 06:13:43;;;;;;;17.80;10.60;;;2.40;92.10;;;1.88;85.98;97663.38;5062528;28;20620;-79
2021/01/02 06:16:11;;;;;;;16.33;10.47;;;2.40;91.90;;;1.92;86.05;97664.88;5060472;28;20623;-79
2021/01/02 06:18:41;;;;;;;15.53;10.17;;;2.50;92.50;;;1.91;85.70;97661.50;5059231;28;20636;-79
2021/01/02 06:21:11;;;;;;;15.50;10.30;;;2.50;92.40;;;1.95;86.13;97662.19;5057811;28;20766;-79
2021/01/02 06:23:41;;;;;;;16.13;10.00;;;2.50;92.40;;;2.01;85.66;97670.47;5046208;28;20631;-79
2021/01/02 06:26:11;;;;;;;15.57;9.87;;;2.50;92.00;;;2.00;85.64;97658.53;5058168;28;20628;-79
2021/01/02 06:28:41;;;;;;;16.93;11.30;;;2.50;92.30;;;1.99;86.23;97663.75;5066284;28;20987;-79
2021/01/02 06:31:12;;;;;;;18.80;11.10;;;2.50;92.10;;;2.02;85.96;97658.47;5042586;28;20624;-79
2021/01/02 06:33:46;;;;;;;14.20;10.47;;;2.50;92.20;;;2.07;85.36;97669.41;5068415;28;20627;-79
2021/01/02 06:36:29;;;;;;;14.90;10.30;;;2.50;91.90;;;2.03;85.61;97668.69;5066719;28;20626;-79
2021/01/02 06:39:20;;;;;;;16.40;11.23;;;2.60;92.10;;;2.01;85.85;97665.34;5068444;28;20678;-79
2021/01/02 06:41:50;;;;;;;16.53;10.67;;;2.50;92.20;;;2.03;85.96;97660.97;5066787;28;20754;-79
2021/01/02 06:44:41;;;;;;;17.00;11.57;;;2.60;92.30;;;2.04;86.34;97656.66;5059205;28;20682;-79
2021/01/02 06:47:22;;;;;;;15.77;11.10;;;2.60;92.30;;;2.04;85.90;97660.06;5057207;28;20633;-79
2021/01/02 06:49:52;;;;;;;15.20;10.90;;;2.60;92.70;;;2.06;86.08;97663.44;5051552;28;20619;-79
2021/01/02 06:52:31;;;;;;;16.70;10.77;;;2.60;92.10;;;2.04;86.34;97660.06;5066172;28;20632;-79
2021/01/02 06:55:18;;;;;;;16.13;11.30;;;2.60;92.20;;;2.03;85.96;97657.56;5064150;28;21420;-79
2021/01/02 06:57:46;;;;;;;26.00;18.93;;;2.60;92.30;;;2.06;86.05;97658.28;5041008;28;20629;-78
2021/01/02 07:00:22;;;;;;;23.63;15.20;;;2.60;92.30;;;2.07;86.12;97648.81;5059440;28;20648;-79
2021/01/02 07:02:50;;;;;;;20.17;13.00;;;2.60;92.30;;;2.14;85.83;97655.41;5069052;28;20619;-79
2021/01/02 07:05:44;;;;;;;21.20;12.70;;;2.60;92.10;;;2.13;86.00;97654.53;5068345;28;20635;-79
2021/01/02 07:08:40;;;;;;;20.27;13.43;;;2.70;92.40;;;2.15;86.24;97652.75;5060979;28;20655;-79
2021/01/02 07:11:29;;;;;;;14.40;11.20;;;2.70;92.50;;;2.16;85.97;97658.72;5064744;28;20655;-79
2021/01/02 07:14:24;;;;;;;15.63;11.07;;;2.70;92.40;;;2.21;85.70;97664.50;5066569;28;21243;-79
2021/01/02 07:16:56;;;;;;;17.03;11.63;;;2.70;92.30;;;2.17;85.79;97662.97;5042140;28;20639;-79
2021/01/02 07:19:46;;;;;;;17.40;11.23;;;2.70;92.30;;;2.19;85.95;97656.84;5063674;28;20711;-79
2021/01/02 07:22:27;;;;;;;15.93;11.20;;;2.70;92.10;;;2.22;86.07;97653.31;5059913;28;20658;-79
2021/01/02 07:25:05;;;;;;;15.63;10.50;;;2.80;92.50;;;2.26;86.52;97670.31;5068828;28;20623;-79
2021/01/02 07:27:35;;;;;;;17.70;9.97;;;2.80;92.60;;;2.28;86.03;97668.50;5068285;28;20648;-79
2021/01/02 07:30:09;;;;;;;17.17;10.67;;;2.80;92.30;;;2.31;86.30;97668.38;5068390;28;20683;-79
2021/01/02 07:32:38;;;;;;;18.17;10.53;;;2.80;92.20;;;2.35;86.39;97675.88;5064660;28;20615;-79
2021/01/02 07:35:08;;;;;;;16.30;10.13;;;2.90;92.40;;;2.38;86.35;97675.75;5069909;28;20646;-79
2021/01/02 07:37:39;;;;;;;15.57;10.60;;;2.90;92.80;;;2.42;86.85;97675.56;5065856;28;20680;-79
2021/01/02 07:40:09;;;;;;;16.70;10.30;;;2.90;92.80;;;2.43;86.43;97679.78;5065852;28;20688;-79
2021/01/02 07:42:42;;;;;;;22.70;12.73;;;2.90;92.50;;;2.41;86.81;97670.47;5064975;28;20716;-79
2021/01/02 07:45:12;;;;;;;19.43;11.77;;;2.90;92.50;;;2.40;86.46;97685.06;5066571;28;20628;-79
2021/01/02 07:47:48;;;;;;;18.43;11.80;;;2.90;92.80;;;2.36;86.65;97673.25;5070209;28;20627;-79
2021/01/02 07:50:17;;;;;;;19.40;11.83;;;2.80;92.80;;;2.40;86.83;97679.09;5067101;28;20644;-79
2021/01/02 07:52:50;;;;;;;15.70;11.13;;;2.90;92.70;;;2.42;86.52;97672.97;5057747;28;20631;-79
2021/01/02 07:55:22;;;;;;;16.37;10.90;;;2.90;92.60;;;2.45;86.64;97674.56;5069767;28;20625;-80
2021/01/02 07:57:50;;;;;;;19.50;11.73;;;2.90;92.40;;;2.45;86.26;97678.00;5051849;28;20749;-80
2021/01/02 08:00:19;;;;;;;20.73;13.53;;;2.90;92.50;;;2.45;86.84;97677.13;5067596;28;20670;-81
2021/01/02 08:02:46;;;;;;;16.50;11.50;;;3.00;92.60;;;2.44;86.72;97671.16;5066407;28;21429;-81
2021/01/02 08:05:16;;;;;;;21.43;14.93;;;3.00;92.70;;;2.47;87.00;97665.06;5066962;28;20632;-81
2021/01/02 08:07:54;;;;;;;24.87;16.30;;;3.00;92.80;;;2.52;86.93;97671.66;5045314;28;20757;-81
2021/01/02 08:10:22;;;;;;;26.00;15.20;;;3.00;92.90;;;2.58;87.11;97670.56;5060782;28;20636;-80
2021/01/02 08:12:56;;;;;;;18.30;11.53;;;3.10;92.80;;;2.57;86.97;97674.88;5069266;28;21151;-81
2021/01/02 08:15:29;;;;;;;14.83;10.90;;;3.10;92.60;;;2.56;86.33;97675.78;5057784;28;20773;-81
2021/01/02 08:18:01;;;;;;;16.30;10.90;;;3.10;92.50;;;2.57;86.81;97672.31;5053878;28;20701;-81
2021/01/02 08:20:28;;;;;;;14.30;10.03;;;3.10;92.70;;;2.60;87.18;97677.34;5048288;28;20659;-82
2021/01/02 08:22:58;;;;;;;18.87;12.20;;;3.10;92.80;;;2.64;87.06;97684.00;5050230;28;20675;-82
2021/01/02 08:25:27;;;;;;;19.60;12.80;;;3.10;92.90;;;2.67;86.96;97676.13;5069838;28;20624;-81
2021/01/02 08:27:56;;;;;;;15.53;11.30;;;3.20;92.90;;;2.67;87.02;97678.72;5070565;28;21231;-81
2021/01/02 08:30:24;;;;;;;17.07;11.57;;;3.20;92.80;;;2.70;87.13;97672.59;5069875;28;21277;-81
2021/01/02 08:32:54;;;;;;;17.50;12.37;;;3.20;92.80;;;2.77;86.84;97663.69;5062317;28;21173;-81
2021/01/02 08:35:27;;;;;;;19.03;12.70;;;3.30;92.90;;;2.70;87.60;97658.00;5061272;28;20624;-81
2021/01/02 08:38:05;;;;;;;19.47;13.17;;;3.20;92.90;;;2.75;87.45;97668.06;5062869;28;20620;-82
2021/01/02 08:40:37;;;;;;;19.37;12.30;;;3.30;93.20;;;2.81;87.87;97678.94;5053853;28;20710;-81
2021/01/02 08:43:05;;;;;;;19.80;13.50;;;3.30;93.30;;;2.88;88.06;97680.34;5062520;28;20636;-81
2021/01/02 08:45:36;;;;;;;20.27;13.40;;;3.40;93.40;;;2.94;87.32;97672.34;5060635;28;20669;-81
2021/01/02 08:48:05;;;;;;;23.07;14.93;;;3.40;93.20;;;2.90;87.52;97665.66;5055411;28;20612;-82
2021/01/02 08:50:33;;;;;;;21.47;13.10;;;3.40;93.30;;;2.90;87.11;97678.50;5070509;28;20627;-82
2021/01/02 08:53:02;;;;;;;27.17;17.00;;;3.40;93.10;;;2.94;88.10;97682.63;5060244;28;20628;-80
2021/01/02 08:55:30;;;;;;;49.47;31.00;;;3.40;93.40;;;3.01;87.81;97681.47;5060334;28;21422;-79
2021/01/02 08:57:59;;;;;;;42.30;25.90;;;3.50;93.50;;;3.07;88.46;97683.75;5064123;28;20636;-79
2021/01/02 09:00:29;;;;;;;27.07;14.40;;;3.50;93.50;;;3.12;87.58;97684.38;5059031;28;20637;-81
2021/01/02 09:03:07;;;;;;;28.50;17.00;;;3.60;93.60;;;3.18;88.14;97689.25;5074914;28;20631;-81
2021/01/02 09:05:37;;;;;;;22.13;13.70;;;3.60;93.70;;;3.24;87.98;97689.78;5054528;28;21184;-81
2021/01/02 09:08:07;;;;;;;20.40;13.40;;;3.70;93.70;;;3.29;88.51;97696.41;5066511;28;20647;-80
2021/01/02 09:10:38;;;;;;;21.50;12.03;;;3.80;93.80;;;3.34;88.33;97706.50;5075427;28;20642;-80
2021/01/02 09:13:19;;;;;;;22.17;13.17;;;3.80;93.70;;;3.35;87.36;97703.88;5064927;28;20693;-80
2021/01/02 09:15:59;;;;;;;35.20;22.90;;;3.80;93.40;;;3.33;88.02;97703.06;5065420;28;20628;-80
2021/01/02 09:18:40;;;;;;;25.27;17.10;;;3.80;93.30;;;3.31;87.69;97702.31;5061755;28;21170;-80
2021/01/02 09:21:22;;;;;;;25.47;17.00;;;3.80;93.40;;;3.37;87.52;97703.78;5075485;28;21225;-79
2021/01/02 09:24:00;;;;;;;43.80;30.55;;;3.80;93.60;;;3.39;87.52;97701.97;5071211;28;20755;-80
2021/01/02 09:26:33;;;;;;;22.50;14.93;;;3.80;93.40;;;3.42;87.14;97699.25;5057144;28;20311;-79
2021/01/02 09:29:03;;;;;;;24.50;14.10;;;3.80;93.60;;;3.44;87.16;97698.28;5073659;28;20689;-79
2021/01/02 09:31:35;;;;;;;31.93;20.70;;;3.90;93.30;;;3.49;88.15;97695.50;5056479;28;20605;-79
2021/01/02 09:34:03;;;;;;;32.33;20.07;;;3.90;93.40;;;3.53;88.42;97692.66;5053604;28;20632;-79
2021/01/02 09:36:31;;;;;;;32.97;20.17;;;4.00;93.60;;;3.55;87.49;97688.31;5074856;28;20980;-80
2021/01/02 09:38:59;;;;;;;29.67;20.10;;;4.00;93.40;;;3.59;87.30;97689.81;5061129;28;20635;-79
2021/01/02 09:41:29;;;;;;;29.60;18.60;;;4.00;93.30;;;3.64;88.13;97687.88;5081766;28;21218;-78
2021/01/02 09:43:58;;;;;;;30.87;19.40;;;4.10;93.50;;;3.67;88.25;97690.28;5067850;28;20692;-78
2021/01/02 09:46:28;;;;;;;25.17;17.50;;;4.10;93.40;;;3.72;87.55;97701.22;5064940;28;21031;-78
2021/01/02 09:48:58;;;;;;;28.33;18.40;;;4.20;93.50;;;3.73;88.18;97702.91;5060827;28;20635;-78
2021/01/02 09:51:30;;;;;;;25.90;17.20;;;4.20;93.40;;;3.79;88.47;97700.03;5068807;28;20631;-78
2021/01/02 09:53:58;;;;;;;26.43;15.47;;;4.20;93.40;;;3.77;86.89;97699.25;5061564;28;20964;-78
2021/01/02 09:56:26;;;;;;;24.20;16.17;;;4.30;93.30;;;3.84;87.05;97700.63;5069454;28;20668;-78
2021/01/02 09:58:54;;;;;;;26.40;15.17;;;4.20;93.20;;;3.72;87.03;97702.97;5068251;28;20698;-79
2021/01/02 10:01:22;;;;;;;25.30;15.50;;;4.10;93.20;;;3.77;87.39;97701.81;5048651;28;21207;-78
2021/01/02 10:03:50;;;;;;;25.10;14.43;;;4.20;93.40;;;3.77;87.48;97714.72;5071202;28;21017;-79
2021/01/02 10:06:18;;;;;;;27.30;15.70;;;4.10;93.30;;;3.76;87.41;97707.91;5044539;28;20731;-78
2021/01/02 10:08:45;;;;;;;28.87;15.30;;;4.20;93.50;;;3.84;87.20;97710.94;5070931;28;20639;-79
2021/01/02 10:11:13;;;;;;;26.07;14.77;;;4.20;93.40;;;3.83;87.23;97714.41;5065001;28;21233;-79
2021/01/02 10:13:41;;;;;;;33.80;18.07;;;4.20;93.20;;;3.91;86.26;97710.56;5061063;28;20636;-78
2021/01/02 10:16:09;;;;;;;25.80;14.97;;;4.30;93.30;;;3.80;87.33;97709.41;5002829;28;20663;-78
2021/01/02 10:18:39;;;;;;;28.73;17.10;;;4.30;93.20;;;3.78;87.84;97704.31;5041168;28;21032;-79
2021/01/02 10:21:12;;;;;;;25.83;15.70;;;4.30;93.30;;;3.82;87.22;97697.31;5041173;28;20660;-79
2021/01/02 10:23:40;;;;;;;28.37;16.00;;;4.30;93.20;;;3.83;87.45;97698.94;5041472;28;20628;-79
2021/01/02 10:26:07;;;;;;;24.90;15.37;;;4.30;93.40;;;3.84;87.32;97705.78;5035965;28;20621;-79
2021/01/02 10:28:35;;;;;;;26.10;15.20;;;4.30;93.20;;;3.70;87.36;97703.03;5065465;28;20643;-79
2021/01/02 10:31:03;;;;;;;25.33;15.07;;;4.10;93.00;;;3.59;88.25;97694.97;5039299;28;20629;-79
2021/01/02 10:33:32;;;;;;;29.40;16.13;;;4.00;93.40;;;3.53;87.80;97684.94;5042852;28;20633;-79
2021/01/02 10:35:59;;;;;;;26.23;15.37;;;4.00;93.70;;;3.60;87.71;97685.50;5051566;28;20706;-79
2021/01/02 10:38:27;;;;;;;27.43;15.30;;;4.00;93.80;;;3.56;88.49;97678.81;5046794;28;20695;-78
2021/01/02 10:40:55;;;;;;;27.90;16.43;;;4.00;93.90;;;3.47;88.85;97669.78;5046379;28;21255;-79
2021/01/02 10:43:22;;;;;;;31.90;14.80;;;3.90;93.90;;;3.42;87.48;97671.72;5038705;28;20625;-79
2021/01/02 10:45:50;;;;;;;30.07;15.30;;;3.80;93.70;;;3.36;88.14;97666.88;5048188;28;20632;-79
2021/01/02 10:48:19;;;;;;;24.30;15.13;;;3.80;93.90;;;3.35;87.97;97660.06;5038153;28;20690;-78